Tipton, Michigan
Current Conditions -  °F | °C
As of 11:53 AM on Friday 28 Nov 2014 (Local Time) from KADG Reporting Station
Broken Clouds Broken Clouds  
Wind Chill: 16°   Ceiling: 2500
Heat Index: 26°   Visibility: 10mi
Dew Point: 18°   Wind: 12mph
Humidity: 71%   Direction: 230°SW
Pressure: 30.29"   Gusts: NA
Location:  42.02°N, 84.06°W
Report Text: KADG 281653Z AUTO 23010KT 10SM BKN025 BKN090 M03/M08 A3029 RMK AO2 SLP271 T10331078
Loading
Personal Weather Stations






























Interactive Weather Map New forecast layout! Learn more

10-Day Weather Forecast

Advertisements
Track Severe Weather on mobile